Main page
METAR-TAF:

METAR-TAF

Airports :

Campbeltown Airport

Campbeltown, Scotland

latitude: 55-26-14N, longitude: 005-41-11W, elevation: 13 m

Current weather observation

The report was made 4 hours and 30 minutes ago, at 16:50 UTC
Wind 3 kt from the South
Temperature 12°C
Humidity 76%
Pressure 999 hPa
Visibility 10 km or more
Few clouds at a height of 2700 ft

METAR: EGEC 201650Z 19003KT 9999 FEW027 12/08 Q0999

Time: 22:20 (21:20 UTC)

Forecast

The report was made 7 hours and 24 minutes ago, at 13:56 UTC
Forecast valid from 20 at 15 UTC to 20 at 17 UTC
Wind 10 kt from the South/Southwest
Visibility 10 km or more
Few clouds at a height of 2000 ft
Scattered clouds at a height of 3000 ft
Becoming
from 20 at 15 UTC to 20 at 17 UTC
Wind 5 kt from the East/Southeast
Probability 30% :
Temporary
from 20 at 15 UTC to 20 at 17 UTC
Visibility: 7000 m
rain showers

TAF: EGEC 201356Z 2015/2017 21010KT 9999 FEW020 SCT030 BECMG 2015/2017 12005KT PROB30 TEMPO 2015/2017 7000 SHRA

Weather observations and forecasts of more than 4000 airports (METAR and TAF reports).

The available stations are represented by yellow and red dots on the map.

Hover mouse over dot to see the name of the station.

Then click to see weather observations and forecasts.

To change the map : click on the green buttons with a black cross to zoom in, on the green button with a dash to zoom out, or on the green arrows for adjacent maps.


METAR-TAF: